KSNY

Sidney Municipal / Lloyd W Carr Field Airport

Sidney, Nebraska, USA
TAF COR KSNY 181221Z 1812/1912 02015KT 2SM -DZ BR OVC004 FM181600 33012KT P6SM OVC015 FM181900 34009KT P6SM BKN040 FM190000 02011KT P6SM VCTS BKN020CB
Issued Valid From Valid To
Jun-18 @ 12:21 UTC
(46 minutes ago)
Jun-18 @ 12:00 UTC
(an hour ago)
Jun-19 @ 12:00 UTC
(in 23 hours)
Jun-18 @ 12:00 to Jun-18 @ 16:00
TAF COR KSNY 181221Z 1812/1912 02015KT 2SM -DZ BR OVC004
Wind Visibility Clouds Conditions
20° at 15 knots 2 miles
  • Overcast at 400' AGL
  • Light Drizzle
  • Mist
From Jun-18 @ 16:00 to Jun-18 @ 19:00
FM181600 33012KT P6SM OVC015
Wind Visibility Clouds
330° at 12 knots Greater than 6 miles
  • Overcast at 1,500' AGL
From Jun-18 @ 19:00 to Jun-19 @ 00:00
FM181900 34009KT P6SM BKN040
Wind Visibility Clouds
340° at 9 knots Greater than 6 miles
  • Broken at 4,000' AGL
From Jun-19 @ 00:00 to Jun-19 @ 12:00
FM190000 02011KT P6SM VCTS BKN020CB
Wind Visibility Clouds Conditions
20° at 11 knots Greater than 6 miles
  • Broken at 2,000' AGL
  • Area Thunderstorm
TAF COR KSNY 181221Z 1812/1912 02015KT 2SM -DZ BR OVC004 FM181600 33012KT P6SM OVC015 FM181900 34009KT P6SM BKN040 FM190000 02011KT P6SM VCTS BKN020CB
Issued Jun-18 @ 12:21 UTC
(46 minutes ago)
Valid From Jun-18 @ 12:00 UTC
(an hour ago)
Valid To Jun-19 @ 12:00 UTC
(in 23 hours)
Jun-18 @ 12:00 - Jun-18 @ 16:00
Wind Visibility
20° at 15 knots 2 miles
Clouds
  • Overcast at 400' AGL
Conditions
  • Light Drizzle
  • Mist
From Jun-18 @ 16:00 - Jun-18 @ 19:00
Wind Visibility
330° at 12 knots Greater than 6 miles
Clouds
  • Overcast at 1,500' AGL
From Jun-18 @ 19:00 - Jun-19 @ 00:00
Wind Visibility
340° at 9 knots Greater than 6 miles
Clouds
  • Broken at 4,000' AGL
From Jun-19 @ 00:00 - Jun-19 @ 12:00
Wind Visibility
20° at 11 knots Greater than 6 miles
Clouds
  • Broken at 2,000' AGL
Conditions
  • Area Thunderstorm